WTB26J DNMM-EDDF
Flight info
| Callsign | WTB26J |
|---|---|
| Flight time | N/A |
| Altitude | 35000 |
| Route | BUDSI1Q BUDSI UB731 KIGRA UY333 TEVMA/N0476F370 UY333 MIGNI UY212 EREBO/N0477F360 UA604 TMS/N0470F370 UZ111 OPRIC/N0463F380 UZ111 ELO UR978 CSO UA605 CIRTA DCT ERETI DCT OMARD DCT NOSTA DCT NOPMU DCT ABESI DCT LADOL T163 EMPAX EMPAX5B |
| Aircraft | A346/H-SDE2E3FGHIJ3J4J5M1RWXY/LB1D1 |
Departure
| Time | 2026-05-07 07:03 |
|---|---|
| Airport | Murtala Muhammed International Airport (DNMM) |
Arrival
| Time | N/A |
|---|---|
| Airport | Frankfurt Main Airport (EDDF) |
| Time | Latitude | Longitude | Altitude | Speed | Heading |
|---|---|---|---|---|---|
| 2026-05-07 06:45 | 6.58126 | 3.31976 | 101 ft | 0 kts | 246° |
| 2026-05-07 06:54 | 6.58126 | 3.31977 | 101 ft | 0 kts | 246° |
| 2026-05-07 06:55 | 6.58128 | 3.31981 | 101 ft | 2 kts | 248° |
| 2026-05-07 06:55 | 6.58132 | 3.31997 | 102 ft | 2 kts | 266° |
| 2026-05-07 06:55 | 6.58132 | 3.32014 | 102 ft | 2 kts | 281° |
| 2026-05-07 06:55 | 6.58127 | 3.32030 | 102 ft | 2 kts | 295° |
| 2026-05-07 06:56 | 6.58118 | 3.32045 | 103 ft | 2 kts | 309° |
| 2026-05-07 06:56 | 6.58106 | 3.32057 | 103 ft | 2 kts | 323° |
| 2026-05-07 06:56 | 6.58092 | 3.32065 | 103 ft | 1 kts | 337° |
| 2026-05-07 06:56 | 6.58090 | 3.32066 | 103 ft | 0 kts | 338° |
| 2026-05-07 06:59 | 6.58100 | 3.32062 | 103 ft | 5 kts | 338° |
| 2026-05-07 06:59 | 6.58156 | 3.32039 | 102 ft | 10 kts | 338° |
| 2026-05-07 06:59 | 6.58211 | 3.31993 | 101 ft | 11 kts | 284° |
| 2026-05-07 06:59 | 6.58187 | 3.31882 | 97 ft | 18 kts | 249° |
| 2026-05-07 07:00 | 6.58129 | 3.31746 | 92 ft | 22 kts | 246° |
| 2026-05-07 07:00 | 6.58080 | 3.31629 | 88 ft | 15 kts | 248° |
| 2026-05-07 07:00 | 6.58093 | 3.31536 | 84 ft | 13 kts | 330° |
| 2026-05-07 07:00 | 6.58196 | 3.31521 | 84 ft | 15 kts | 358° |
| 2026-05-07 07:01 | 6.58314 | 3.31520 | 84 ft | 16 kts | 360° |
| 2026-05-07 07:01 | 6.58439 | 3.31519 | 81 ft | 19 kts | 360° |
| 2026-05-07 07:01 | 6.58580 | 3.31519 | 80 ft | 20 kts | 360° |
| 2026-05-07 07:01 | 6.58672 | 3.31519 | 80 ft | 13 kts | 360° |
| 2026-05-07 07:02 | 6.58772 | 3.31509 | 78 ft | 15 kts | 330° |
| 2026-05-07 07:02 | 6.58805 | 3.31415 | 80 ft | 14 kts | 269° |
| 2026-05-07 07:02 | 6.58763 | 3.31338 | 83 ft | 12 kts | 219° |
| 2026-05-07 07:02 | 6.58661 | 3.31315 | 84 ft | 30 kts | 182° |
| 2026-05-07 07:03 | 6.58217 | 3.31321 | 81 ft | 96 kts | 179° |
| 2026-05-07 07:03 | 6.57325 | 3.31332 | 80 ft | 152 kts | 179° |
| 2026-05-07 07:03 | 6.56085 | 3.31343 | 152 ft | 189 kts | 179° |
| 2026-05-07 07:03 | 6.54764 | 3.31350 | 757 ft | 184 kts | 179° |
| 2026-05-07 07:04 | 6.53442 | 3.31397 | 1343 ft | 184 kts | 181° |
| 2026-05-07 07:04 | 6.52253 | 3.31008 | 1793 ft | 187 kts | 221° |
| 2026-05-07 07:04 | 6.51530 | 3.29877 | 2105 ft | 200 kts | 255° |
| 2026-05-07 07:04 | 6.51459 | 3.28418 | 2511 ft | 209 kts | 270° |
| 2026-05-07 07:05 | 6.51476 | 3.26919 | 3080 ft | 210 kts | 269° |
| 2026-05-07 07:05 | 6.51483 | 3.25431 | 3660 ft | 211 kts | 272° |
| 2026-05-07 07:05 | 6.51959 | 3.24030 | 4145 ft | 216 kts | 307° |
| 2026-05-07 07:05 | 6.53175 | 3.23102 | 4548 ft | 224 kts | 340° |
| 2026-05-07 07:06 | 6.54789 | 3.22904 | 4818 ft | 239 kts | 360° |
| 2026-05-07 07:06 | 6.56531 | 3.22910 | 5067 ft | 258 kts | 1° |
| 2026-05-07 07:06 | 6.58450 | 3.22915 | 5452 ft | 273 kts | 0° |
| 2026-05-07 07:06 | 6.60393 | 3.22905 | 6089 ft | 277 kts | 0° |
| 2026-05-07 07:07 | 6.62352 | 3.22881 | 6811 ft | 278 kts | 1° |
| 2026-05-07 07:07 | 6.64300 | 3.22850 | 7502 ft | 279 kts | 2° |
| 2026-05-07 07:07 | 6.66254 | 3.22818 | 8174 ft | 280 kts | 3° |
| 2026-05-07 07:07 | 6.68217 | 3.22787 | 8841 ft | 281 kts | 4° |
| 2026-05-07 07:08 | 6.70224 | 3.22756 | 9518 ft | 282 kts | 5° |
| 2026-05-07 07:08 | 6.72208 | 3.22729 | 10153 ft | 283 kts | 5° |
| 2026-05-07 07:08 | 6.74239 | 3.22704 | 10494 ft | 296 kts | 5° |
| 2026-05-07 07:08 | 6.76363 | 3.22678 | 10755 ft | 312 kts | 4° |
| 2026-05-07 07:09 | 6.78610 | 3.22649 | 11017 ft | 326 kts | 5° |
| 2026-05-07 07:09 | 6.80953 | 3.22725 | 11274 ft | 340 kts | 8° |
| 2026-05-07 07:09 | 6.83397 | 3.22974 | 11527 ft | 353 kts | 11° |
| 2026-05-07 07:09 | 6.85885 | 3.23313 | 11809 ft | 366 kts | 12° |
| 2026-05-07 07:10 | 6.88452 | 3.23672 | 12329 ft | 372 kts | 12° |
| 2026-05-07 07:10 | 6.91051 | 3.24035 | 12925 ft | 375 kts | 11° |
| 2026-05-07 07:10 | 6.93648 | 3.24398 | 13510 ft | 378 kts | 11° |
| 2026-05-07 07:10 | 6.96289 | 3.24768 | 14057 ft | 382 kts | 11° |
| 2026-05-07 07:11 | 6.99023 | 3.25151 | 14567 ft | 387 kts | 11° |
| 2026-05-07 07:11 | 7.01761 | 3.25535 | 15059 ft | 392 kts | 11° |
| 2026-05-07 07:11 | 7.04496 | 3.25918 | 15538 ft | 397 kts | 11° |
| 2026-05-07 07:11 | 7.07278 | 3.26307 | 16022 ft | 400 kts | 10° |
| 2026-05-07 07:12 | 7.10052 | 3.26778 | 16482 ft | 404 kts | 12° |
| 2026-05-07 07:12 | 7.12858 | 3.27304 | 16930 ft | 408 kts | 12° |
| 2026-05-07 07:12 | 7.15710 | 3.27844 | 17368 ft | 412 kts | 12° |
| 2026-05-07 07:12 | 7.18581 | 3.28387 | 17807 ft | 416 kts | 12° |
| 2026-05-07 07:13 | 7.21464 | 3.28931 | 18279 ft | 419 kts | 12° |
| 2026-05-07 07:13 | 7.24327 | 3.29471 | 18749 ft | 420 kts | 12° |
| 2026-05-07 07:13 | 7.27246 | 3.30021 | 19204 ft | 423 kts | 12° |
| 2026-05-07 07:13 | 7.30161 | 3.30570 | 19647 ft | 425 kts | 12° |
| 2026-05-07 07:14 | 7.33096 | 3.31124 | 20068 ft | 427 kts | 12° |
| 2026-05-07 07:14 | 7.36045 | 3.31681 | 20471 ft | 430 kts | 12° |
| 2026-05-07 07:14 | 7.39022 | 3.32243 | 20875 ft | 432 kts | 12° |
| 2026-05-07 07:14 | 7.42017 | 3.32808 | 21268 ft | 435 kts | 12° |
| 2026-05-07 07:15 | 7.45007 | 3.33372 | 21656 ft | 437 kts | 12° |
| 2026-05-07 07:15 | 7.48053 | 3.33947 | 22046 ft | 439 kts | 12° |
| 2026-05-07 07:15 | 7.51065 | 3.34516 | 22434 ft | 441 kts | 12° |
| 2026-05-07 07:15 | 7.54129 | 3.35094 | 22834 ft | 443 kts | 12° |
| 2026-05-07 07:16 | 7.57187 | 3.35672 | 23218 ft | 445 kts | 12° |
| 2026-05-07 07:16 | 7.60259 | 3.36253 | 23590 ft | 447 kts | 12° |
| 2026-05-07 07:16 | 7.63328 | 3.36833 | 23956 ft | 449 kts | 12° |
| 2026-05-07 07:16 | 7.66452 | 3.37422 | 24339 ft | 452 kts | 12° |
| 2026-05-07 07:17 | 7.69591 | 3.38015 | 24717 ft | 454 kts | 12° |
| 2026-05-07 07:17 | 7.72705 | 3.38603 | 25077 ft | 456 kts | 12° |
| 2026-05-07 07:17 | 7.75875 | 3.39199 | 25432 ft | 458 kts | 11° |
| 2026-05-07 07:17 | 7.79066 | 3.39685 | 25791 ft | 461 kts | 8° |
| 2026-05-07 07:18 | 7.82287 | 3.40009 | 26147 ft | 464 kts | 6° |
| 2026-05-07 07:18 | 7.85537 | 3.40243 | 26487 ft | 466 kts | 5° |
| 2026-05-07 07:18 | 7.88793 | 3.40463 | 26828 ft | 468 kts | 5° |
| 2026-05-07 07:18 | 7.92071 | 3.40683 | 27162 ft | 470 kts | 5° |
| 2026-05-07 07:19 | 7.95397 | 3.40905 | 27496 ft | 472 kts | 5° |
| 2026-05-07 07:19 | 7.98689 | 3.41127 | 27825 ft | 474 kts | 5° |
| 2026-05-07 07:19 | 8.02031 | 3.41353 | 28155 ft | 476 kts | 5° |
| 2026-05-07 07:19 | 8.05346 | 3.41578 | 28562 ft | 476 kts | 5° |
| 2026-05-07 07:20 | 8.08658 | 3.41802 | 29051 ft | 474 kts | 5° |
| 2026-05-07 07:20 | 8.11972 | 3.42025 | 29499 ft | 473 kts | 5° |
| 2026-05-07 07:20 | 8.15278 | 3.42249 | 29894 ft | 473 kts | 5° |
| 2026-05-07 07:20 | 8.18561 | 3.42471 | 30256 ft | 474 kts | 5° |
| 2026-05-07 07:21 | 8.21892 | 3.42696 | 30626 ft | 474 kts | 5° |
| 2026-05-07 07:21 | 8.25244 | 3.42924 | 30979 ft | 475 kts | 5° |
| 2026-05-07 07:21 | 8.28539 | 3.43147 | 31327 ft | 476 kts | 5° |
| 2026-05-07 07:21 | 8.31876 | 3.43373 | 31688 ft | 476 kts | 5° |
| 2026-05-07 07:22 | 8.35192 | 3.43594 | 32047 ft | 476 kts | 5° |
| 2026-05-07 07:22 | 8.38530 | 3.43813 | 32412 ft | 476 kts | 5° |
| 2026-05-07 07:22 | 8.41870 | 3.44031 | 32810 ft | 476 kts | 4° |
| 2026-05-07 07:22 | 8.45278 | 3.44252 | 33251 ft | 475 kts | 4° |
| 2026-05-07 07:23 | 8.48785 | 3.44481 | 33665 ft | 475 kts | 4° |
| 2026-05-07 07:23 | 8.52421 | 3.44718 | 34044 ft | 476 kts | 4° |
| 2026-05-07 07:23 | 8.56033 | 3.44956 | 34401 ft | 477 kts | 4° |
| 2026-05-07 07:23 | 8.59699 | 3.45207 | 34746 ft | 479 kts | 4° |
| 2026-05-07 07:24 | 8.63350 | 3.45459 | 34953 ft | 481 kts | 4° |
| 2026-05-07 07:24 | 8.67072 | 3.45715 | 34955 ft | 482 kts | 4° |
| 2026-05-07 07:24 | 8.74416 | 3.46219 | 34957 ft | 482 kts | 4° |
| 2026-05-07 07:25 | 8.84843 | 3.46931 | 34958 ft | 481 kts | 4° |
| 2026-05-07 07:26 | 8.91665 | 3.47395 | 34958 ft | 481 kts | 4° |
| 2026-05-07 07:26 | 8.98438 | 3.47858 | 34958 ft | 481 kts | 4° |
| 2026-05-07 07:27 | 9.05176 | 3.48318 | 34955 ft | 480 kts | 4° |
| 2026-05-07 07:27 | 9.12082 | 3.48788 | 34955 ft | 481 kts | 4° |
| 2026-05-07 07:28 | 9.19175 | 3.49271 | 34959 ft | 481 kts | 4° |
| 2026-05-07 07:28 | 9.26239 | 3.49753 | 34960 ft | 481 kts | 4° |
| 2026-05-07 07:29 | 9.33069 | 3.50220 | 34949 ft | 481 kts | 4° |
| 2026-05-07 07:29 | 9.39962 | 3.50691 | 34946 ft | 481 kts | 4° |
| 2026-05-07 07:30 | 9.46827 | 3.51408 | 34943 ft | 481 kts | 9° |
| 2026-05-07 07:30 | 9.53808 | 3.52936 | 34943 ft | 481 kts | 15° |
| 2026-05-07 07:31 | 9.60816 | 3.55018 | 34937 ft | 482 kts | 16° |
| 2026-05-07 07:31 | 9.67454 | 3.57013 | 34938 ft | 480 kts | 16° |
| 2026-05-07 07:32 | 9.74227 | 3.59043 | 34940 ft | 480 kts | 16° |
| 2026-05-07 07:32 | 9.80798 | 3.61008 | 34943 ft | 480 kts | 16° |
| 2026-05-07 07:33 | 9.87328 | 3.62961 | 34946 ft | 480 kts | 16° |
| 2026-05-07 07:33 | 9.93834 | 3.64908 | 34945 ft | 480 kts | 16° |
| 2026-05-07 07:34 | 10.00305 | 3.66844 | 34940 ft | 480 kts | 16° |
| 2026-05-07 07:34 | 10.06743 | 3.68773 | 34935 ft | 479 kts | 16° |
| 2026-05-07 07:35 | 10.13176 | 3.70699 | 34931 ft | 479 kts | 16° |
| 2026-05-07 07:35 | 10.19688 | 3.72651 | 34929 ft | 478 kts | 16° |
| 2026-05-07 07:36 | 10.26236 | 3.74613 | 34928 ft | 479 kts | 16° |
| 2026-05-07 07:36 | 10.32963 | 3.76631 | 34926 ft | 479 kts | 16° |
| 2026-05-07 07:37 | 10.40027 | 3.78750 | 34926 ft | 479 kts | 16° |
| 2026-05-07 07:37 | 10.46599 | 3.80724 | 34923 ft | 479 kts | 16° |
| 2026-05-07 07:38 | 10.53053 | 3.82663 | 34922 ft | 478 kts | 16° |
| 2026-05-07 07:38 | 10.59492 | 3.84597 | 34917 ft | 478 kts | 16° |
| 2026-05-07 07:39 | 10.65952 | 3.86538 | 34911 ft | 478 kts | 16° |
| 2026-05-07 07:39 | 10.72457 | 3.88494 | 34915 ft | 478 kts | 16° |
| 2026-05-07 07:40 | 10.78904 | 3.90433 | 34918 ft | 478 kts | 16° |
| 2026-05-07 07:40 | 10.85315 | 3.92363 | 34917 ft | 477 kts | 16° |
| 2026-05-07 07:41 | 10.91736 | 3.94297 | 34915 ft | 477 kts | 16° |
| 2026-05-07 07:41 | 10.98129 | 3.96223 | 34912 ft | 476 kts | 16° |
| 2026-05-07 07:42 | 11.04592 | 3.98170 | 34911 ft | 477 kts | 16° |
| 2026-05-07 07:42 | 11.11217 | 4.00169 | 34909 ft | 477 kts | 16° |
| 2026-05-07 07:43 | 11.18102 | 4.02247 | 34905 ft | 478 kts | 16° |
| 2026-05-07 07:43 | 11.24608 | 4.04211 | 34902 ft | 477 kts | 16° |
| 2026-05-07 07:44 | 11.31058 | 4.06159 | 34896 ft | 476 kts | 15° |
| 2026-05-07 07:44 | 11.37506 | 4.08107 | 34886 ft | 477 kts | 15° |
| 2026-05-07 07:45 | 11.43944 | 4.10053 | 34884 ft | 477 kts | 15° |
| 2026-05-07 07:45 | 11.50368 | 4.11995 | 34885 ft | 477 kts | 16° |
| 2026-05-07 07:46 | 11.56782 | 4.13936 | 34890 ft | 477 kts | 15° |
| 2026-05-07 07:46 | 11.63204 | 4.15880 | 34894 ft | 477 kts | 15° |
| 2026-05-07 07:47 | 11.69584 | 4.17812 | 34896 ft | 477 kts | 15° |
| 2026-05-07 07:47 | 11.76016 | 4.19759 | 34895 ft | 477 kts | 15° |
| 2026-05-07 07:48 | 11.82435 | 4.21705 | 34892 ft | 477 kts | 15° |
| 2026-05-07 07:48 | 11.88840 | 4.23647 | 34890 ft | 477 kts | 15° |
| 2026-05-07 07:49 | 11.95276 | 4.25601 | 34887 ft | 477 kts | 15° |
| 2026-05-07 07:49 | 12.01721 | 4.27559 | 34886 ft | 477 kts | 15° |
| 2026-05-07 07:50 | 12.08145 | 4.29512 | 34886 ft | 477 kts | 15° |
| 2026-05-07 07:50 | 12.14578 | 4.31467 | 34888 ft | 476 kts | 15° |
| 2026-05-07 07:51 | 12.20993 | 4.33417 | 34888 ft | 476 kts | 15° |
| 2026-05-07 07:51 | 12.27379 | 4.35360 | 34889 ft | 476 kts | 15° |
| 2026-05-07 07:52 | 12.33778 | 4.37307 | 34890 ft | 476 kts | 15° |
| 2026-05-07 07:52 | 12.40186 | 4.39258 | 34891 ft | 476 kts | 15° |
| 2026-05-07 07:53 | 12.46567 | 4.41203 | 34893 ft | 475 kts | 15° |
| 2026-05-07 07:53 | 12.52933 | 4.43142 | 34895 ft | 475 kts | 15° |
| 2026-05-07 07:54 | 12.59380 | 4.45108 | 34895 ft | 475 kts | 15° |
| 2026-05-07 07:54 | 12.65768 | 4.47057 | 34892 ft | 475 kts | 15° |
| 2026-05-07 07:55 | 12.72170 | 4.49011 | 34887 ft | 475 kts | 15° |
| 2026-05-07 07:55 | 12.78595 | 4.50973 | 34882 ft | 475 kts | 15° |
| 2026-05-07 07:56 | 12.85062 | 4.52949 | 34888 ft | 474 kts | 15° |
| 2026-05-07 07:56 | 12.91440 | 4.54898 | 34893 ft | 475 kts | 15° |
| 2026-05-07 07:57 | 12.97777 | 4.56835 | 34901 ft | 474 kts | 15° |
| 2026-05-07 07:57 | 13.04184 | 4.58762 | 34903 ft | 473 kts | 13° |
| 2026-05-07 07:58 | 13.10630 | 4.60295 | 34902 ft | 473 kts | 11° |
| 2026-05-07 07:58 | 13.17116 | 4.61756 | 34900 ft | 473 kts | 11° |
| 2026-05-07 07:59 | 13.23631 | 4.63226 | 34899 ft | 473 kts | 11° |
| 2026-05-07 07:59 | 13.30124 | 4.64694 | 34900 ft | 473 kts | 11° |
| 2026-05-07 08:00 | 13.36674 | 4.66176 | 34900 ft | 473 kts | 11° |
| 2026-05-07 08:00 | 13.43259 | 4.67669 | 34901 ft | 473 kts | 11° |
| 2026-05-07 08:01 | 13.49934 | 4.69182 | 34901 ft | 473 kts | 11° |
| 2026-05-07 08:01 | 13.56446 | 4.70659 | 34901 ft | 474 kts | 11° |
| 2026-05-07 08:02 | 13.62952 | 4.72137 | 34902 ft | 474 kts | 11° |
| 2026-05-07 08:02 | 13.69472 | 4.73623 | 34906 ft | 474 kts | 10° |
| 2026-05-07 08:03 | 13.75955 | 4.75102 | 34908 ft | 474 kts | 10° |
| 2026-05-07 08:03 | 13.82467 | 4.76581 | 34908 ft | 474 kts | 11° |
| 2026-05-07 08:04 | 13.88963 | 4.78058 | 34905 ft | 474 kts | 10° |
| 2026-05-07 08:04 | 13.95487 | 4.79540 | 34898 ft | 474 kts | 11° |
| 2026-05-07 08:05 | 14.01976 | 4.81014 | 34896 ft | 474 kts | 10° |
| 2026-05-07 08:05 | 14.08497 | 4.82497 | 34895 ft | 475 kts | 10° |
| 2026-05-07 08:06 | 14.15071 | 4.83993 | 34897 ft | 475 kts | 10° |
| 2026-05-07 08:06 | 14.21669 | 4.85495 | 34897 ft | 474 kts | 10° |
| 2026-05-07 08:07 | 14.28261 | 4.86994 | 34894 ft | 474 kts | 10° |
| 2026-05-07 08:07 | 14.34902 | 4.88507 | 34894 ft | 474 kts | 10° |
| 2026-05-07 08:08 | 14.41483 | 4.90008 | 34895 ft | 474 kts | 10° |
| 2026-05-07 08:08 | 14.48001 | 4.91496 | 34895 ft | 474 kts | 10° |
| 2026-05-07 08:09 | 14.54505 | 4.92980 | 34895 ft | 474 kts | 10° |
| 2026-05-07 08:09 | 14.61008 | 4.94465 | 34898 ft | 474 kts | 10° |
| 2026-05-07 08:10 | 14.67530 | 4.95956 | 34900 ft | 474 kts | 10° |
| 2026-05-07 08:10 | 14.74062 | 4.97449 | 34902 ft | 473 kts | 10° |
| 2026-05-07 08:11 | 14.80527 | 4.98928 | 34905 ft | 473 kts | 10° |
| 2026-05-07 08:11 | 14.87047 | 5.00421 | 34902 ft | 473 kts | 10° |
| 2026-05-07 08:12 | 14.93663 | 5.01937 | 34909 ft | 474 kts | 9° |
| 2026-05-07 08:12 | 15.00432 | 5.03488 | 34917 ft | 474 kts | 9° |
| 2026-05-07 08:13 | 15.07039 | 5.05001 | 34920 ft | 474 kts | 10° |
| 2026-05-07 08:13 | 15.13588 | 5.06504 | 34922 ft | 473 kts | 9° |
| 2026-05-07 08:14 | 15.20206 | 5.08022 | 34927 ft | 473 kts | 9° |
| 2026-05-07 08:14 | 15.26814 | 5.09542 | 34929 ft | 473 kts | 9° |
| 2026-05-07 08:15 | 15.33272 | 5.11032 | 34931 ft | 474 kts | 9° |
| 2026-05-07 08:15 | 15.39829 | 5.12544 | 34934 ft | 474 kts | 9° |
| 2026-05-07 08:16 | 15.46365 | 5.14049 | 34937 ft | 474 kts | 9° |
| 2026-05-07 08:16 | 15.52962 | 5.15570 | 34939 ft | 474 kts | 9° |
| 2026-05-07 08:17 | 15.59459 | 5.17070 | 34937 ft | 474 kts | 9° |
| 2026-05-07 08:17 | 15.65958 | 5.18570 | 34936 ft | 473 kts | 9° |
| 2026-05-07 08:18 | 15.72468 | 5.20073 | 34933 ft | 474 kts | 9° |
| 2026-05-07 08:18 | 15.79064 | 5.21596 | 34931 ft | 474 kts | 9° |
| 2026-05-07 08:19 | 15.85731 | 5.23139 | 34930 ft | 474 kts | 9° |
| 2026-05-07 08:19 | 15.92373 | 5.24675 | 34932 ft | 473 kts | 9° |
| 2026-05-07 08:20 | 15.98850 | 5.26174 | 34928 ft | 474 kts | 9° |
| 2026-05-07 08:20 | 16.05336 | 5.27677 | 34923 ft | 474 kts | 9° |
| 2026-05-07 08:21 | 16.11810 | 5.29179 | 34922 ft | 473 kts | 9° |
| 2026-05-07 08:21 | 16.18322 | 5.30691 | 34920 ft | 474 kts | 8° |
| 2026-05-07 08:22 | 16.24828 | 5.32201 | 34918 ft | 474 kts | 8° |
| 2026-05-07 08:22 | 16.31351 | 5.33717 | 34916 ft | 475 kts | 8° |
| 2026-05-07 08:23 | 16.37833 | 5.35224 | 34920 ft | 474 kts | 8° |
| 2026-05-07 08:23 | 16.44320 | 5.36734 | 34924 ft | 473 kts | 8° |
| 2026-05-07 08:24 | 16.50797 | 5.38241 | 34922 ft | 474 kts | 8° |
| 2026-05-07 08:24 | 16.57400 | 5.39778 | 34923 ft | 474 kts | 8° |
| 2026-05-07 08:25 | 16.63953 | 5.41306 | 34923 ft | 473 kts | 8° |
| 2026-05-07 08:25 | 16.70549 | 5.42845 | 34922 ft | 474 kts | 8° |
| 2026-05-07 08:26 | 16.80309 | 5.45124 | 34920 ft | 473 kts | 8° |
| 2026-05-07 08:26 | 16.86780 | 5.46636 | 34920 ft | 474 kts | 8° |
| 2026-05-07 08:27 | 16.93290 | 5.48160 | 34922 ft | 474 kts | 7° |
| 2026-05-07 08:27 | 16.99764 | 5.49675 | 34926 ft | 475 kts | 7° |
| 2026-05-07 08:28 | 17.06245 | 5.51192 | 34925 ft | 474 kts | 7° |
| 2026-05-07 08:28 | 17.12738 | 5.52713 | 34924 ft | 473 kts | 7° |
| 2026-05-07 08:29 | 17.19203 | 5.54229 | 34920 ft | 473 kts | 7° |
| 2026-05-07 08:29 | 17.25666 | 5.55745 | 34916 ft | 474 kts | 7° |
| 2026-05-07 08:30 | 17.32188 | 5.57277 | 34914 ft | 474 kts | 7° |
| 2026-05-07 08:30 | 17.38700 | 5.58807 | 34916 ft | 474 kts | 7° |
| 2026-05-07 08:31 | 17.45194 | 5.60335 | 34918 ft | 474 kts | 7° |
| 2026-05-07 08:31 | 17.51693 | 5.61864 | 34917 ft | 474 kts | 7° |
| 2026-05-07 08:32 | 17.58211 | 5.63399 | 34917 ft | 473 kts | 7° |
| 2026-05-07 08:32 | 17.64707 | 5.64928 | 34919 ft | 474 kts | 7° |
| 2026-05-07 08:33 | 17.71211 | 5.66460 | 34918 ft | 475 kts | 7° |
| 2026-05-07 08:33 | 17.77739 | 5.68000 | 34921 ft | 474 kts | 7° |
| 2026-05-07 08:34 | 17.84226 | 5.69867 | 34922 ft | 478 kts | 13° |
| 2026-05-07 08:34 | 17.90527 | 5.72276 | 34932 ft | 480 kts | 15° |
| 2026-05-07 08:35 | 17.96880 | 5.74775 | 34941 ft | 480 kts | 15° |
| 2026-05-07 08:35 | 18.03211 | 5.77263 | 34945 ft | 480 kts | 15° |
| 2026-05-07 08:36 | 18.09543 | 5.79747 | 34951 ft | 480 kts | 15° |
| 2026-05-07 08:36 | 18.15942 | 5.82258 | 34947 ft | 480 kts | 14° |
| 2026-05-07 08:37 | 18.22259 | 5.84739 | 34947 ft | 479 kts | 15° |
| 2026-05-07 08:37 | 18.28606 | 5.87231 | 34940 ft | 479 kts | 15° |
| 2026-05-07 08:38 | 18.34968 | 5.89731 | 34938 ft | 480 kts | 15° |
| 2026-05-07 08:38 | 18.41273 | 5.92211 | 34931 ft | 480 kts | 15° |
| 2026-05-07 08:39 | 18.47572 | 5.94693 | 34935 ft | 479 kts | 15° |
| 2026-05-07 08:39 | 18.53880 | 5.97178 | 34933 ft | 479 kts | 15° |
| 2026-05-07 08:40 | 18.60197 | 5.99671 | 34931 ft | 478 kts | 15° |
| 2026-05-07 08:40 | 18.66444 | 6.02136 | 34934 ft | 478 kts | 15° |
| 2026-05-07 08:41 | 18.72753 | 6.04628 | 34936 ft | 479 kts | 15° |
| 2026-05-07 08:41 | 18.79024 | 6.07107 | 34933 ft | 479 kts | 14° |
| 2026-05-07 08:42 | 18.85420 | 6.09638 | 34934 ft | 480 kts | 14° |
| 2026-05-07 08:42 | 18.91704 | 6.12126 | 34934 ft | 479 kts | 14° |
| 2026-05-07 08:43 | 18.98060 | 6.14644 | 34935 ft | 478 kts | 15° |
| 2026-05-07 08:43 | 19.04456 | 6.17181 | 34934 ft | 478 kts | 14° |
| 2026-05-07 08:44 | 19.10910 | 6.19742 | 34939 ft | 479 kts | 15° |
| 2026-05-07 08:44 | 19.17249 | 6.22260 | 34939 ft | 479 kts | 15° |
| 2026-05-07 08:45 | 19.23578 | 6.24777 | 34940 ft | 480 kts | 14° |
| 2026-05-07 08:45 | 19.29892 | 6.27290 | 34943 ft | 480 kts | 14° |
| 2026-05-07 08:46 | 19.36195 | 6.29800 | 34942 ft | 480 kts | 14° |
| 2026-05-07 08:46 | 19.42534 | 6.32326 | 34951 ft | 481 kts | 14° |
| 2026-05-07 08:47 | 19.48822 | 6.34834 | 34953 ft | 480 kts | 14° |
| 2026-05-07 08:47 | 19.55139 | 6.37357 | 34951 ft | 481 kts | 14° |
| 2026-05-07 08:48 | 19.61445 | 6.39875 | 34947 ft | 480 kts | 14° |
| 2026-05-07 08:48 | 19.67772 | 6.42405 | 34944 ft | 480 kts | 14° |
| 2026-05-07 08:49 | 19.74118 | 6.44944 | 34949 ft | 481 kts | 14° |
| 2026-05-07 08:49 | 19.80441 | 6.47477 | 34947 ft | 483 kts | 14° |
| 2026-05-07 08:50 | 19.86802 | 6.50025 | 34950 ft | 483 kts | 14° |
| 2026-05-07 08:50 | 19.89997 | 6.51305 | 35054 ft | 488 kts | 14° |
| 2026-05-07 08:50 | 19.93175 | 6.52580 | 35429 ft | 487 kts | 14° |
| 2026-05-07 08:51 | 19.96371 | 6.53865 | 35887 ft | 485 kts | 14° |
| 2026-05-07 08:51 | 19.99545 | 6.55143 | 36315 ft | 483 kts | 14° |
| 2026-05-07 08:51 | 20.02805 | 6.56407 | 36657 ft | 480 kts | 11° |
| 2026-05-07 08:51 | 20.06111 | 6.57303 | 36912 ft | 473 kts | 4° |
| 2026-05-07 08:52 | 20.12667 | 6.57821 | 36952 ft | 461 kts | 350° |
| 2026-05-07 08:52 | 20.18956 | 6.56796 | 36951 ft | 450 kts | 338° |
| 2026-05-07 08:53 | 20.24834 | 6.54565 | 36955 ft | 445 kts | 332° |
| 2026-05-07 08:53 | 20.30665 | 6.52094 | 36955 ft | 445 kts | 332° |
| 2026-05-07 08:54 | 20.36563 | 6.49594 | 36955 ft | 445 kts | 332° |
| 2026-05-07 08:54 | 20.42413 | 6.47120 | 36955 ft | 445 kts | 332° |
| 2026-05-07 08:55 | 20.48281 | 6.44639 | 36957 ft | 444 kts | 332° |
| 2026-05-07 08:55 | 20.54186 | 6.42144 | 36960 ft | 445 kts | 332° |
| 2026-05-07 08:56 | 20.60068 | 6.39655 | 36965 ft | 445 kts | 332° |
| 2026-05-07 08:56 | 20.65862 | 6.37203 | 36977 ft | 445 kts | 332° |
| 2026-05-07 08:57 | 20.71707 | 6.34724 | 36985 ft | 445 kts | 332° |
| 2026-05-07 08:57 | 20.77544 | 6.32250 | 36987 ft | 445 kts | 332° |
| 2026-05-07 08:58 | 20.83390 | 6.29769 | 36989 ft | 444 kts | 332° |
| 2026-05-07 08:58 | 20.89188 | 6.27306 | 36990 ft | 444 kts | 332° |
| 2026-05-07 08:59 | 20.95019 | 6.24826 | 36991 ft | 445 kts | 332° |
| 2026-05-07 08:59 | 21.00870 | 6.22336 | 36988 ft | 446 kts | 331° |
| 2026-05-07 09:00 | 21.06710 | 6.19849 | 36989 ft | 446 kts | 331° |
| 2026-05-07 09:00 | 21.12613 | 6.17334 | 36994 ft | 446 kts | 331° |
| 2026-05-07 09:01 | 21.18489 | 6.14827 | 36996 ft | 447 kts | 331° |
| 2026-05-07 09:01 | 21.24446 | 6.12283 | 37000 ft | 447 kts | 331° |
| 2026-05-07 09:02 | 21.30367 | 6.09752 | 36999 ft | 448 kts | 331° |
| 2026-05-07 09:02 | 21.36212 | 6.07251 | 37003 ft | 449 kts | 331° |
| 2026-05-07 09:03 | 21.42092 | 6.04734 | 37006 ft | 448 kts | 331° |
| 2026-05-07 09:03 | 21.47942 | 6.02227 | 37008 ft | 449 kts | 331° |
| 2026-05-07 09:04 | 21.53849 | 5.99694 | 37012 ft | 450 kts | 331° |
| 2026-05-07 09:04 | 21.59727 | 5.97172 | 37018 ft | 450 kts | 331° |
| 2026-05-07 09:05 | 21.65629 | 5.94635 | 37021 ft | 451 kts | 331° |
| 2026-05-07 09:05 | 21.71509 | 5.92106 | 37027 ft | 451 kts | 330° |
| 2026-05-07 09:06 | 21.77459 | 5.89546 | 37032 ft | 452 kts | 330° |
| 2026-05-07 09:06 | 21.83478 | 5.86953 | 37043 ft | 451 kts | 331° |
| 2026-05-07 09:07 | 21.89446 | 5.84380 | 37045 ft | 451 kts | 330° |
| 2026-05-07 09:07 | 21.95387 | 5.81815 | 37050 ft | 453 kts | 330° |
| 2026-05-07 09:08 | 22.01419 | 5.79210 | 37059 ft | 453 kts | 330° |
| 2026-05-07 09:08 | 22.07352 | 5.76645 | 37067 ft | 452 kts | 330° |
| 2026-05-07 09:09 | 22.13250 | 5.74092 | 37075 ft | 453 kts | 330° |
| 2026-05-07 09:09 | 22.19149 | 5.71537 | 37082 ft | 451 kts | 330° |
| 2026-05-07 09:10 | 22.25062 | 5.68974 | 37092 ft | 452 kts | 330° |
| 2026-05-07 09:10 | 22.30937 | 5.66423 | 37105 ft | 453 kts | 330° |
| 2026-05-07 09:11 | 22.36844 | 5.63857 | 37114 ft | 452 kts | 330° |
| 2026-05-07 09:11 | 22.42781 | 5.61275 | 37130 ft | 452 kts | 330° |
| 2026-05-07 09:12 | 22.48773 | 5.58666 | 37144 ft | 452 kts | 330° |
| 2026-05-07 09:12 | 22.54723 | 5.56070 | 37162 ft | 452 kts | 330° |
| 2026-05-07 09:13 | 22.60714 | 5.53454 | 37170 ft | 452 kts | 330° |
| 2026-05-07 09:13 | 22.66745 | 5.50816 | 37180 ft | 451 kts | 330° |
| 2026-05-07 09:14 | 22.72778 | 5.48257 | 37185 ft | 455 kts | 333° |
| 2026-05-07 09:14 | 22.79069 | 5.46478 | 37205 ft | 465 kts | 341° |
| 2026-05-07 09:15 | 22.85642 | 5.45690 | 37213 ft | 475 kts | 350° |
| 2026-05-07 09:15 | 22.92428 | 5.45967 | 37225 ft | 484 kts | 357° |
| 2026-05-07 09:16 | 22.99236 | 5.46741 | 37240 ft | 486 kts | 358° |
| 2026-05-07 09:16 | 23.06007 | 5.47534 | 37269 ft | 486 kts | 358° |
| 2026-05-07 09:17 | 23.12762 | 5.48313 | 37297 ft | 486 kts | 358° |
| 2026-05-07 09:17 | 23.19601 | 5.49097 | 37340 ft | 486 kts | 358° |
| 2026-05-07 09:18 | 23.26467 | 5.49880 | 37372 ft | 487 kts | 358° |
| 2026-05-07 09:18 | 23.33341 | 5.50666 | 37349 ft | 487 kts | 358° |
| 2026-05-07 09:19 | 23.40244 | 5.51456 | 37304 ft | 486 kts | 358° |
| 2026-05-07 09:19 | 23.47123 | 5.52243 | 37256 ft | 486 kts | 358° |
| 2026-05-07 09:20 | 23.54058 | 5.53036 | 37223 ft | 486 kts | 358° |
| 2026-05-07 09:20 | 23.60814 | 5.53812 | 37205 ft | 487 kts | 358° |
| 2026-05-07 09:21 | 23.67622 | 5.54592 | 37195 ft | 487 kts | 358° |
| 2026-05-07 09:21 | 23.74407 | 5.55372 | 37185 ft | 488 kts | 357° |
| 2026-05-07 09:22 | 23.81233 | 5.56158 | 37181 ft | 488 kts | 357° |
| 2026-05-07 09:22 | 23.88020 | 5.56942 | 37179 ft | 487 kts | 357° |
| 2026-05-07 09:23 | 23.94819 | 5.57723 | 37179 ft | 488 kts | 357° |
| 2026-05-07 09:23 | 24.01478 | 5.58493 | 37179 ft | 488 kts | 357° |
| 2026-05-07 09:24 | 24.08320 | 5.59285 | 37181 ft | 487 kts | 357° |
| 2026-05-07 09:24 | 24.15140 | 5.60073 | 37179 ft | 487 kts | 357° |
| 2026-05-07 09:25 | 24.22027 | 5.60870 | 37176 ft | 488 kts | 357° |
| 2026-05-07 09:25 | 24.28863 | 5.61662 | 37172 ft | 489 kts | 357° |
| 2026-05-07 09:26 | 24.35713 | 5.62454 | 37167 ft | 489 kts | 357° |
| 2026-05-07 09:26 | 24.42511 | 5.63246 | 37161 ft | 488 kts | 356° |
| 2026-05-07 09:27 | 24.49334 | 5.64041 | 37151 ft | 488 kts | 357° |
| 2026-05-07 09:28 | 24.59582 | 5.65232 | 37138 ft | 487 kts | 356° |
| 2026-05-07 09:28 | 24.66359 | 5.66024 | 37123 ft | 487 kts | 356° |
| 2026-05-07 09:29 | 24.73173 | 5.66817 | 37101 ft | 488 kts | 356° |
| 2026-05-07 09:29 | 24.80012 | 5.67617 | 37090 ft | 489 kts | 356° |
| 2026-05-07 09:30 | 24.86855 | 5.68417 | 37087 ft | 488 kts | 356° |
| 2026-05-07 09:30 | 24.93809 | 5.69231 | 37071 ft | 489 kts | 356° |
| 2026-05-07 09:31 | 25.00631 | 5.70031 | 37073 ft | 489 kts | 356° |
| 2026-05-07 09:31 | 25.07486 | 5.70836 | 37079 ft | 488 kts | 356° |
| 2026-05-07 09:32 | 25.14283 | 5.71634 | 37086 ft | 488 kts | 356° |
| 2026-05-07 09:32 | 25.21204 | 5.72448 | 37102 ft | 489 kts | 356° |
| 2026-05-07 09:33 | 25.28021 | 5.73252 | 37106 ft | 489 kts | 356° |
| 2026-05-07 09:33 | 25.34857 | 5.74057 | 37107 ft | 489 kts | 356° |
| 2026-05-07 09:34 | 25.41676 | 5.74860 | 37105 ft | 489 kts | 356° |
| 2026-05-07 09:34 | 25.48527 | 5.75670 | 37107 ft | 490 kts | 356° |
| 2026-05-07 09:35 | 25.55389 | 5.76482 | 37098 ft | 489 kts | 356° |
| 2026-05-07 09:35 | 25.62217 | 5.77290 | 37092 ft | 490 kts | 356° |
| 2026-05-07 09:36 | 25.69048 | 5.78099 | 37079 ft | 490 kts | 356° |
| 2026-05-07 09:36 | 25.75892 | 5.78911 | 37070 ft | 490 kts | 356° |
| 2026-05-07 09:37 | 25.82717 | 5.79719 | 37076 ft | 490 kts | 356° |
| 2026-05-07 09:37 | 25.89610 | 5.80537 | 37074 ft | 491 kts | 356° |
| 2026-05-07 09:38 | 25.96254 | 5.81324 | 37076 ft | 491 kts | 356° |
| 2026-05-07 09:38 | 26.03139 | 5.82148 | 37068 ft | 491 kts | 356° |
| 2026-05-07 09:39 | 26.10008 | 5.82976 | 37076 ft | 492 kts | 356° |
| 2026-05-07 09:39 | 26.16921 | 5.83805 | 37081 ft | 494 kts | 356° |
| 2026-05-07 09:40 | 26.23772 | 5.84627 | 37089 ft | 493 kts | 356° |
| 2026-05-07 09:40 | 26.30674 | 5.85453 | 37086 ft | 493 kts | 356° |
| 2026-05-07 09:41 | 26.37573 | 5.86280 | 37089 ft | 492 kts | 356° |
| 2026-05-07 09:41 | 26.44473 | 5.87107 | 37056 ft | 494 kts | 356° |
| 2026-05-07 09:42 | 26.51443 | 5.87949 | 37051 ft | 492 kts | 356° |
| 2026-05-07 09:42 | 26.58376 | 5.88782 | 37048 ft | 493 kts | 356° |
| 2026-05-07 09:43 | 26.65362 | 5.89621 | 37053 ft | 495 kts | 356° |
| 2026-05-07 09:43 | 26.72317 | 5.90462 | 37053 ft | 495 kts | 356° |
| 2026-05-07 09:44 | 26.79279 | 5.91302 | 37034 ft | 498 kts | 356° |
| 2026-05-07 09:44 | 26.86172 | 5.92136 | 37039 ft | 497 kts | 356° |
| 2026-05-07 09:45 | 26.93123 | 5.92976 | 37007 ft | 497 kts | 356° |
| 2026-05-07 09:45 | 27.00131 | 5.93826 | 36990 ft | 497 kts | 356° |
| 2026-05-07 09:46 | 27.07049 | 5.94668 | 36974 ft | 496 kts | 356° |
| 2026-05-07 09:46 | 27.14001 | 5.95514 | 36977 ft | 496 kts | 356° |
| 2026-05-07 09:47 | 27.20917 | 5.96357 | 36980 ft | 495 kts | 356° |
| 2026-05-07 09:47 | 27.27838 | 5.97193 | 36973 ft | 499 kts | 356° |
| 2026-05-07 09:48 | 27.34793 | 5.98048 | 36975 ft | 496 kts | 356° |
| 2026-05-07 09:48 | 27.41771 | 5.98902 | 36967 ft | 496 kts | 356° |
| 2026-05-07 09:49 | 27.48625 | 5.99733 | 36964 ft | 498 kts | 356° |
| 2026-05-07 09:49 | 27.55637 | 6.00594 | 36963 ft | 496 kts | 356° |
| 2026-05-07 09:50 | 27.62608 | 6.01452 | 36962 ft | 495 kts | 356° |
| 2026-05-07 09:50 | 27.69539 | 6.02302 | 36960 ft | 494 kts | 356° |
| 2026-05-07 09:51 | 27.76459 | 6.03149 | 36951 ft | 496 kts | 356° |
| 2026-05-07 09:51 | 27.83370 | 6.04000 | 36959 ft | 496 kts | 356° |
| 2026-05-07 09:52 | 27.90299 | 6.04854 | 36951 ft | 495 kts | 356° |
| 2026-05-07 09:52 | 27.97234 | 6.05710 | 36950 ft | 495 kts | 356° |
| 2026-05-07 09:53 | 28.04151 | 6.06564 | 36945 ft | 495 kts | 356° |
| 2026-05-07 09:53 | 28.11141 | 6.07426 | 36948 ft | 495 kts | 356° |
| 2026-05-07 09:54 | 28.18130 | 6.08294 | 36942 ft | 494 kts | 356° |
| 2026-05-07 09:54 | 28.25011 | 6.09145 | 36953 ft | 494 kts | 356° |
| 2026-05-07 09:55 | 28.31955 | 6.10006 | 36958 ft | 494 kts | 356° |
| 2026-05-07 09:55 | 28.38859 | 6.10861 | 36960 ft | 494 kts | 357° |
| 2026-05-07 09:56 | 28.45813 | 6.11724 | 36957 ft | 496 kts | 357° |
| 2026-05-07 09:56 | 28.52750 | 6.12586 | 36960 ft | 496 kts | 356° |
| 2026-05-07 09:57 | 28.59660 | 6.13448 | 36951 ft | 495 kts | 357° |
| 2026-05-07 09:57 | 28.66574 | 6.14321 | 36949 ft | 495 kts | 358° |
| 2026-05-07 09:58 | 28.73464 | 6.15193 | 36945 ft | 495 kts | 358° |
| 2026-05-07 09:58 | 28.80343 | 6.16057 | 36946 ft | 494 kts | 357° |
| 2026-05-07 09:59 | 28.87271 | 6.16928 | 36947 ft | 493 kts | 358° |
| 2026-05-07 09:59 | 28.94232 | 6.17798 | 36944 ft | 496 kts | 358° |
| 2026-05-07 10:00 | 29.01228 | 6.18682 | 36941 ft | 496 kts | 358° |
| 2026-05-07 10:00 | 29.08305 | 6.19572 | 36943 ft | 497 kts | 358° |
| 2026-05-07 10:01 | 29.15301 | 6.20462 | 36938 ft | 493 kts | 358° |
| 2026-05-07 10:01 | 29.22268 | 6.21340 | 36932 ft | 493 kts | 358° |
| 2026-05-07 10:02 | 29.29191 | 6.22218 | 36923 ft | 493 kts | 358° |
| 2026-05-07 10:02 | 29.36074 | 6.23093 | 36915 ft | 492 kts | 358° |
| 2026-05-07 10:03 | 29.42975 | 6.23964 | 36918 ft | 493 kts | 358° |
| 2026-05-07 10:03 | 29.49884 | 6.24845 | 36918 ft | 493 kts | 358° |
| 2026-05-07 10:04 | 29.56775 | 6.25722 | 36917 ft | 491 kts | 358° |
| 2026-05-07 10:04 | 29.63673 | 6.26601 | 36921 ft | 492 kts | 358° |
| 2026-05-07 10:05 | 29.70600 | 6.27487 | 36920 ft | 493 kts | 358° |
| 2026-05-07 10:05 | 29.77528 | 6.28370 | 36918 ft | 490 kts | 358° |
| 2026-05-07 10:06 | 29.84403 | 6.29251 | 36912 ft | 491 kts | 358° |
| 2026-05-07 10:06 | 29.91373 | 6.30143 | 36917 ft | 491 kts | 358° |
| 2026-05-07 10:07 | 29.98399 | 6.31044 | 36917 ft | 491 kts | 358° |
| 2026-05-07 10:07 | 30.05297 | 6.31934 | 36923 ft | 490 kts | 358° |
| 2026-05-07 10:08 | 30.12410 | 6.32846 | 36911 ft | 492 kts | 358° |
| 2026-05-07 10:08 | 30.19255 | 6.33728 | 36915 ft | 491 kts | 358° |
| 2026-05-07 10:09 | 30.26217 | 6.34631 | 36905 ft | 492 kts | 358° |
| 2026-05-07 10:09 | 30.33207 | 6.35532 | 36903 ft | 492 kts | 358° |
| 2026-05-07 10:10 | 30.40045 | 6.36413 | 36894 ft | 493 kts | 358° |
| 2026-05-07 10:10 | 30.46955 | 6.37308 | 36894 ft | 494 kts | 358° |
| 2026-05-07 10:11 | 30.53869 | 6.38205 | 36892 ft | 493 kts | 358° |
| 2026-05-07 10:11 | 30.60717 | 6.39095 | 36893 ft | 494 kts | 359° |
| 2026-05-07 10:12 | 30.67659 | 6.39995 | 36894 ft | 496 kts | 359° |
| 2026-05-07 10:12 | 30.74593 | 6.40896 | 36878 ft | 495 kts | 359° |
| 2026-05-07 10:13 | 30.81581 | 6.41808 | 36875 ft | 495 kts | 359° |
| 2026-05-07 10:13 | 30.88563 | 6.42718 | 36873 ft | 495 kts | 359° |
| 2026-05-07 10:14 | 30.95498 | 6.43633 | 36883 ft | 495 kts | 359° |
| 2026-05-07 10:14 | 31.02430 | 6.44547 | 36870 ft | 494 kts | 359° |
| 2026-05-07 10:15 | 31.09400 | 6.45470 | 36869 ft | 495 kts | 359° |
| 2026-05-07 10:15 | 31.16360 | 6.46387 | 36867 ft | 495 kts | 359° |
| 2026-05-07 10:16 | 31.23293 | 6.47298 | 36867 ft | 496 kts | 359° |
| 2026-05-07 10:16 | 31.30252 | 6.48218 | 36866 ft | 496 kts | 359° |
| 2026-05-07 10:17 | 31.37157 | 6.49131 | 36853 ft | 497 kts | 359° |
| 2026-05-07 10:17 | 31.44122 | 6.50054 | 36844 ft | 496 kts | 359° |
| 2026-05-07 10:18 | 31.51092 | 6.50980 | 36843 ft | 496 kts | 359° |
| 2026-05-07 10:18 | 31.58074 | 6.51901 | 36836 ft | 497 kts | 359° |
| 2026-05-07 10:19 | 31.65163 | 6.52846 | 36833 ft | 497 kts | 359° |
| 2026-05-07 10:19 | 31.72378 | 6.53811 | 36828 ft | 498 kts | 359° |
| 2026-05-07 10:20 | 31.79535 | 6.54765 | 36830 ft | 496 kts | 359° |
| 2026-05-07 10:20 | 31.86600 | 6.55705 | 36825 ft | 497 kts | 359° |
| 2026-05-07 10:21 | 31.93702 | 6.56659 | 36828 ft | 496 kts | 358° |
| 2026-05-07 10:21 | 32.00899 | 6.57623 | 36821 ft | 496 kts | 358° |
| 2026-05-07 10:22 | 32.08110 | 6.58587 | 36829 ft | 499 kts | 359° |
| 2026-05-07 10:22 | 32.15206 | 6.59538 | 36829 ft | 500 kts | 359° |
| 2026-05-07 10:23 | 32.22208 | 6.60486 | 36830 ft | 497 kts | 359° |
| 2026-05-07 10:23 | 32.29196 | 6.61425 | 36829 ft | 501 kts | 359° |
| 2026-05-07 10:24 | 32.36261 | 6.62382 | 36830 ft | 499 kts | 359° |
| 2026-05-07 10:24 | 32.43299 | 6.63333 | 36829 ft | 501 kts | 358° |
| 2026-05-07 10:25 | 32.50373 | 6.64296 | 36826 ft | 499 kts | 359° |
| 2026-05-07 10:25 | 32.57477 | 6.65255 | 36821 ft | 501 kts | 359° |
| 2026-05-07 10:26 | 32.64598 | 6.66229 | 36822 ft | 500 kts | 359° |
| 2026-05-07 10:26 | 32.71802 | 6.67205 | 36814 ft | 500 kts | 359° |
| 2026-05-07 10:27 | 32.78876 | 6.68168 | 36810 ft | 502 kts | 359° |
| 2026-05-07 10:27 | 32.86210 | 6.69175 | 36803 ft | 499 kts | 359° |
| 2026-05-07 10:28 | 32.93395 | 6.70152 | 36802 ft | 501 kts | 359° |
| 2026-05-07 10:28 | 33.00581 | 6.71138 | 36805 ft | 500 kts | 358° |
| 2026-05-07 10:29 | 33.07916 | 6.72146 | 36801 ft | 500 kts | 358° |
| 2026-05-07 10:29 | 33.15192 | 6.73140 | 36803 ft | 504 kts | 358° |
| 2026-05-07 10:30 | 33.26226 | 6.74655 | 36820 ft | 505 kts | 358° |
| 2026-05-07 10:30 | 33.33661 | 6.75681 | 36825 ft | 505 kts | 358° |
| 2026-05-07 10:31 | 33.41409 | 6.76745 | 36825 ft | 505 kts | 358° |
| 2026-05-07 10:31 | 33.49146 | 6.77740 | 36827 ft | 501 kts | 355° |
| 2026-05-07 10:32 | 33.56933 | 6.77804 | 36830 ft | 493 kts | 348° |
| 2026-05-07 10:32 | 33.64356 | 6.77341 | 36828 ft | 494 kts | 347° |
| 2026-05-07 10:33 | 33.71687 | 6.76869 | 36821 ft | 492 kts | 348° |
| 2026-05-07 10:33 | 33.79131 | 6.76407 | 36829 ft | 494 kts | 348° |
| 2026-05-07 10:34 | 33.86510 | 6.75952 | 36822 ft | 495 kts | 348° |
| 2026-05-07 10:34 | 33.93787 | 6.75505 | 36821 ft | 496 kts | 348° |
| 2026-05-07 10:35 | 34.01086 | 6.75064 | 36815 ft | 493 kts | 348° |
| 2026-05-07 10:35 | 34.08446 | 6.74608 | 36798 ft | 496 kts | 347° |
| 2026-05-07 10:36 | 34.15865 | 6.74156 | 36801 ft | 495 kts | 347° |
| 2026-05-07 10:36 | 34.23519 | 6.73682 | 36804 ft | 498 kts | 347° |
| 2026-05-07 10:37 | 34.31194 | 6.73208 | 36811 ft | 497 kts | 348° |
| 2026-05-07 10:37 | 34.38948 | 6.72731 | 36823 ft | 497 kts | 348° |
| 2026-05-07 10:38 | 34.46776 | 6.72248 | 36831 ft | 496 kts | 347° |
| 2026-05-07 10:38 | 34.54280 | 6.71779 | 36834 ft | 497 kts | 348° |
| 2026-05-07 10:39 | 34.61908 | 6.71304 | 36848 ft | 496 kts | 348° |
| 2026-05-07 10:39 | 34.69542 | 6.70824 | 36859 ft | 494 kts | 348° |
| 2026-05-07 10:40 | 34.77208 | 6.70336 | 36861 ft | 497 kts | 347° |
| 2026-05-07 10:40 | 34.84888 | 6.69872 | 36892 ft | 498 kts | 347° |
| 2026-05-07 10:41 | 34.92132 | 6.69438 | 36902 ft | 496 kts | 347° |
| 2026-05-07 10:41 | 34.99234 | 6.69009 | 36930 ft | 496 kts | 347° |
| 2026-05-07 10:42 | 35.06570 | 6.68554 | 36950 ft | 497 kts | 347° |
| 2026-05-07 10:42 | 35.13739 | 6.68115 | 36963 ft | 498 kts | 347° |
| 2026-05-07 10:43 | 35.20811 | 6.67675 | 36980 ft | 499 kts | 347° |
| 2026-05-07 10:43 | 35.28003 | 6.67239 | 36997 ft | 496 kts | 346° |
| 2026-05-07 10:44 | 35.35140 | 6.66788 | 36985 ft | 500 kts | 347° |
| 2026-05-07 10:44 | 35.42147 | 6.66361 | 36980 ft | 499 kts | 347° |
| 2026-05-07 10:45 | 35.49264 | 6.65916 | 36964 ft | 500 kts | 346° |
| 2026-05-07 10:45 | 35.56331 | 6.65476 | 36966 ft | 500 kts | 346° |
| 2026-05-07 10:46 | 35.63549 | 6.65019 | 36959 ft | 503 kts | 347° |
| 2026-05-07 10:46 | 35.70653 | 6.64575 | 36952 ft | 504 kts | 347° |
| 2026-05-07 10:47 | 35.77792 | 6.64136 | 36957 ft | 504 kts | 346° |
| 2026-05-07 10:47 | 35.85096 | 6.63674 | 36959 ft | 505 kts | 346° |
| 2026-05-07 10:48 | 35.92866 | 6.63186 | 36958 ft | 504 kts | 346° |
| 2026-05-07 10:48 | 36.00538 | 6.62698 | 36962 ft | 505 kts | 346° |
| 2026-05-07 10:49 | 36.07970 | 6.62232 | 36958 ft | 501 kts | 345° |
| 2026-05-07 10:49 | 36.16039 | 6.61701 | 36947 ft | 505 kts | 345° |
| 2026-05-07 10:50 | 36.24137 | 6.61191 | 36942 ft | 504 kts | 345° |
| 2026-05-07 10:50 | 36.32389 | 6.61327 | 36937 ft | 516 kts | 354° |
| 2026-05-07 10:51 | 36.40246 | 6.62448 | 36938 ft | 525 kts | 357° |
| 2026-05-07 10:51 | 36.47685 | 6.63632 | 36936 ft | 523 kts | 357° |
| 2026-05-07 10:52 | 36.55009 | 6.64775 | 36929 ft | 522 kts | 356° |
| 2026-05-07 10:52 | 36.62427 | 6.65912 | 36919 ft | 524 kts | 357° |
| 2026-05-07 10:53 | 36.70088 | 6.67074 | 36914 ft | 529 kts | 356° |
| 2026-05-07 10:53 | 36.77650 | 6.68241 | 36907 ft | 527 kts | 357° |
| 2026-05-07 10:54 | 36.84891 | 6.69356 | 36903 ft | 524 kts | 356° |
| 2026-05-07 10:54 | 36.92251 | 6.70488 | 36896 ft | 524 kts | 357° |
| 2026-05-07 10:55 | 36.99585 | 6.71617 | 36894 ft | 523 kts | 356° |
| 2026-05-07 10:55 | 37.06882 | 6.72743 | 36894 ft | 523 kts | 355° |
| 2026-05-07 10:56 | 37.14145 | 6.73861 | 36892 ft | 524 kts | 355° |
| 2026-05-07 10:56 | 37.21516 | 6.74996 | 36896 ft | 529 kts | 355° |
| 2026-05-07 10:57 | 37.28871 | 6.76152 | 36894 ft | 524 kts | 356° |
| 2026-05-07 10:57 | 37.36181 | 6.77286 | 36894 ft | 526 kts | 356° |
| 2026-05-07 10:58 | 37.43561 | 6.78433 | 36898 ft | 528 kts | 355° |
| 2026-05-07 10:58 | 37.50943 | 6.79587 | 36896 ft | 528 kts | 355° |
| 2026-05-07 10:59 | 37.58363 | 6.80746 | 36901 ft | 529 kts | 355° |
| 2026-05-07 10:59 | 37.65699 | 6.81898 | 36903 ft | 530 kts | 355° |
| 2026-05-07 11:00 | 37.73117 | 6.83056 | 36895 ft | 533 kts | 356° |
| 2026-05-07 11:00 | 37.80559 | 6.84236 | 36910 ft | 531 kts | 355° |
| 2026-05-07 11:01 | 37.88163 | 6.85438 | 36906 ft | 531 kts | 355° |
| 2026-05-07 11:01 | 37.95903 | 6.86660 | 36911 ft | 531 kts | 355° |
| 2026-05-07 11:02 | 38.03830 | 6.87915 | 36918 ft | 532 kts | 355° |
| 2026-05-07 11:02 | 38.11588 | 6.89145 | 36917 ft | 532 kts | 356° |
| 2026-05-07 11:03 | 38.19069 | 6.90338 | 36926 ft | 532 kts | 355° |
| 2026-05-07 11:03 | 38.26485 | 6.91521 | 36927 ft | 532 kts | 355° |
| 2026-05-07 11:04 | 38.33903 | 6.92701 | 36927 ft | 532 kts | 355° |
| 2026-05-07 11:04 | 38.41289 | 6.93881 | 36930 ft | 531 kts | 355° |
| 2026-05-07 11:05 | 38.48714 | 6.95076 | 36932 ft | 530 kts | 355° |
| 2026-05-07 11:05 | 38.56111 | 6.96270 | 36925 ft | 528 kts | 355° |
| 2026-05-07 11:06 | 38.63530 | 6.97459 | 36921 ft | 528 kts | 355° |
| 2026-05-07 11:06 | 38.71261 | 6.98712 | 36922 ft | 526 kts | 354° |
| 2026-05-07 11:07 | 38.79073 | 6.99964 | 36925 ft | 526 kts | 355° |
| 2026-05-07 11:07 | 38.86861 | 7.01223 | 36936 ft | 529 kts | 355° |
| 2026-05-07 11:08 | 38.94842 | 7.02520 | 36944 ft | 525 kts | 355° |
| 2026-05-07 11:08 | 39.02488 | 7.03722 | 36941 ft | 522 kts | 354° |
| 2026-05-07 11:09 | 39.10005 | 7.04624 | 36947 ft | 521 kts | 353° |
| 2026-05-07 11:09 | 39.17569 | 7.05490 | 36943 ft | 522 kts | 353° |
| 2026-05-07 11:10 | 39.25014 | 7.06379 | 36951 ft | 519 kts | 353° |
| 2026-05-07 11:10 | 39.32507 | 7.07270 | 36955 ft | 521 kts | 354° |
| 2026-05-07 11:11 | 39.39947 | 7.08166 | 36949 ft | 522 kts | 353° |
| 2026-05-07 11:11 | 39.47269 | 7.09056 | 36948 ft | 519 kts | 353° |
| 2026-05-07 11:12 | 39.54665 | 7.09958 | 36947 ft | 512 kts | 353° |
| 2026-05-07 11:12 | 39.62172 | 7.10860 | 36947 ft | 514 kts | 353° |
| 2026-05-07 11:13 | 39.69503 | 7.11749 | 36941 ft | 511 kts | 353° |
| 2026-05-07 11:13 | 39.76738 | 7.12625 | 36949 ft | 512 kts | 353° |
| 2026-05-07 11:14 | 39.83889 | 7.13505 | 36941 ft | 508 kts | 352° |
| 2026-05-07 11:14 | 39.91028 | 7.14365 | 36936 ft | 512 kts | 353° |
| 2026-05-07 11:15 | 39.98150 | 7.15237 | 36950 ft | 510 kts | 353° |
| 2026-05-07 11:15 | 40.05327 | 7.16113 | 36942 ft | 512 kts | 353° |
| 2026-05-07 11:16 | 40.12432 | 7.16985 | 36947 ft | 509 kts | 354° |
| 2026-05-07 11:16 | 40.19517 | 7.17863 | 36949 ft | 505 kts | 354° |
| 2026-05-07 11:17 | 40.26581 | 7.18824 | 36945 ft | 507 kts | 355° |
| 2026-05-07 11:17 | 40.33701 | 7.19816 | 36952 ft | 504 kts | 355° |
| 2026-05-07 11:18 | 40.41157 | 7.20842 | 36948 ft | 505 kts | 356° |
| 2026-05-07 11:18 | 40.48430 | 7.21829 | 36956 ft | 506 kts | 356° |
| 2026-05-07 11:19 | 40.55718 | 7.22834 | 36956 ft | 500 kts | 356° |
| 2026-05-07 11:19 | 40.63094 | 7.23842 | 36956 ft | 500 kts | 356° |
| 2026-05-07 11:20 | 40.70441 | 7.24851 | 36956 ft | 504 kts | 356° |
| 2026-05-07 11:20 | 40.77677 | 7.25854 | 36956 ft | 498 kts | 356° |
| 2026-05-07 11:21 | 40.84713 | 7.26818 | 36960 ft | 501 kts | 357° |
| 2026-05-07 11:21 | 40.91864 | 7.27809 | 36961 ft | 498 kts | 357° |
| 2026-05-07 11:22 | 40.98948 | 7.28794 | 36962 ft | 498 kts | 358° |
| 2026-05-07 11:22 | 41.06133 | 7.29791 | 36959 ft | 497 kts | 358° |
| 2026-05-07 11:23 | 41.09718 | 7.30293 | 36666 ft | 497 kts | 358° |
| 2026-05-07 11:23 | 41.13474 | 7.30814 | 36876 ft | 499 kts | 358° |
| 2026-05-07 11:23 | 41.20998 | 7.31871 | 36957 ft | 497 kts | 358° |
| 2026-05-07 11:24 | 41.28578 | 7.32931 | 36967 ft | 498 kts | 358° |
| 2026-05-07 11:24 | 41.36208 | 7.34000 | 36970 ft | 497 kts | 358° |
| 2026-05-07 11:25 | 41.43618 | 7.35042 | 36967 ft | 496 kts | 358° |
| 2026-05-07 11:25 | 41.51383 | 7.36136 | 36976 ft | 495 kts | 358° |
| 2026-05-07 11:26 | 41.59150 | 7.37235 | 36974 ft | 495 kts | 358° |
| 2026-05-07 11:26 | 41.66536 | 7.38279 | 36982 ft | 494 kts | 359° |
| 2026-05-07 11:27 | 41.74097 | 7.39353 | 36980 ft | 493 kts | 359° |
| 2026-05-07 11:27 | 41.81647 | 7.40426 | 36974 ft | 492 kts | 359° |
| 2026-05-07 11:28 | 41.89427 | 7.41535 | 36978 ft | 493 kts | 359° |
| 2026-05-07 11:28 | 41.97052 | 7.42625 | 36987 ft | 491 kts | 359° |
| 2026-05-07 11:29 | 42.04376 | 7.43677 | 36984 ft | 490 kts | 359° |
| 2026-05-07 11:29 | 42.12111 | 7.44787 | 36985 ft | 490 kts | 359° |
| 2026-05-07 11:30 | 42.19796 | 7.45894 | 36979 ft | 490 kts | 359° |
| 2026-05-07 11:30 | 42.27733 | 7.47038 | 36989 ft | 490 kts | 359° |
| 2026-05-07 11:31 | 42.35467 | 7.48159 | 36987 ft | 489 kts | 359° |
| 2026-05-07 11:31 | 42.43350 | 7.49302 | 36980 ft | 489 kts | 359° |
| 2026-05-07 11:32 | 42.55198 | 7.51025 | 36977 ft | 489 kts | 359° |
| 2026-05-07 11:33 | 42.63261 | 7.52203 | 36972 ft | 489 kts | 359° |
| 2026-05-07 11:33 | 42.71308 | 7.53377 | 36952 ft | 489 kts | 359° |
| 2026-05-07 11:34 | 42.79303 | 7.54548 | 36964 ft | 489 kts | 360° |
| 2026-05-07 11:34 | 42.87393 | 7.55737 | 36953 ft | 489 kts | 359° |
| 2026-05-07 11:35 | 42.95493 | 7.56928 | 36968 ft | 488 kts | 359° |
| 2026-05-07 11:35 | 43.03576 | 7.58114 | 36974 ft | 488 kts | 359° |
| 2026-05-07 11:36 | 43.11523 | 7.59374 | 36946 ft | 490 kts | 2° |
| 2026-05-07 11:36 | 43.19503 | 7.61170 | 36976 ft | 491 kts | 3° |
| 2026-05-07 11:37 | 43.27340 | 7.62985 | 36965 ft | 490 kts | 3° |
| 2026-05-07 11:37 | 43.34934 | 7.64726 | 36955 ft | 490 kts | 3° |
| 2026-05-07 11:38 | 43.42629 | 7.66488 | 36953 ft | 489 kts | 4° |
| 2026-05-07 11:38 | 43.50345 | 7.68259 | 36952 ft | 489 kts | 4° |
| 2026-05-07 11:39 | 43.57972 | 7.70010 | 36937 ft | 489 kts | 4° |
| 2026-05-07 11:39 | 43.65534 | 7.71748 | 36944 ft | 488 kts | 4° |
| 2026-05-07 11:40 | 43.73026 | 7.73521 | 36938 ft | 489 kts | 6° |
| 2026-05-07 11:40 | 43.80449 | 7.76618 | 36944 ft | 496 kts | 18° |
| 2026-05-07 11:41 | 43.87339 | 7.81545 | 36957 ft | 502 kts | 29° |
| 2026-05-07 11:41 | 43.93949 | 7.87495 | 36968 ft | 500 kts | 27° |
| 2026-05-07 11:42 | 44.00906 | 7.92497 | 36978 ft | 496 kts | 19° |
| 2026-05-07 11:42 | 44.08164 | 7.96332 | 36985 ft | 493 kts | 15° |
| 2026-05-07 11:43 | 44.15260 | 7.99844 | 36981 ft | 493 kts | 15° |
| 2026-05-07 11:43 | 44.22384 | 8.03401 | 36974 ft | 492 kts | 15° |
| 2026-05-07 11:44 | 44.29448 | 8.06950 | 36974 ft | 492 kts | 15° |
| 2026-05-07 11:44 | 44.36639 | 8.10580 | 36970 ft | 492 kts | 15° |
| 2026-05-07 11:45 | 44.43830 | 8.14216 | 36963 ft | 492 kts | 15° |
| 2026-05-07 11:45 | 44.51081 | 8.17896 | 36952 ft | 492 kts | 15° |
| 2026-05-07 11:46 | 44.58442 | 8.21645 | 36964 ft | 491 kts | 15° |
| 2026-05-07 11:46 | 44.65762 | 8.25380 | 36963 ft | 491 kts | 15° |
| 2026-05-07 11:47 | 44.73148 | 8.29160 | 36963 ft | 491 kts | 15° |
| 2026-05-07 11:47 | 44.80553 | 8.32958 | 36968 ft | 491 kts | 15° |
| 2026-05-07 11:48 | 44.87947 | 8.36761 | 36969 ft | 491 kts | 15° |
| 2026-05-07 11:48 | 44.95374 | 8.40591 | 36970 ft | 491 kts | 15° |
| 2026-05-07 11:49 | 45.02803 | 8.44433 | 36945 ft | 490 kts | 15° |
| 2026-05-07 11:49 | 45.10028 | 8.48179 | 36954 ft | 490 kts | 15° |
| 2026-05-07 11:50 | 45.17016 | 8.51815 | 36949 ft | 490 kts | 15° |
| 2026-05-07 11:50 | 45.24245 | 8.55584 | 36938 ft | 490 kts | 15° |
| 2026-05-07 11:51 | 45.31431 | 8.59341 | 36939 ft | 490 kts | 15° |
| 2026-05-07 11:51 | 45.38578 | 8.63086 | 36951 ft | 490 kts | 15° |
| 2026-05-07 11:52 | 45.45552 | 8.66751 | 36952 ft | 490 kts | 16° |
| 2026-05-07 11:52 | 45.52369 | 8.70342 | 36959 ft | 491 kts | 17° |
| 2026-05-07 11:53 | 45.59111 | 8.73906 | 36964 ft | 490 kts | 16° |
| 2026-05-07 11:53 | 45.65748 | 8.77422 | 36967 ft | 490 kts | 16° |
| 2026-05-07 11:54 | 45.72166 | 8.80828 | 36981 ft | 490 kts | 17° |
| 2026-05-07 11:54 | 45.78781 | 8.84346 | 36929 ft | 490 kts | 17° |
| 2026-05-07 11:55 | 45.85436 | 8.87897 | 37087 ft | 490 kts | 17° |
| 2026-05-07 11:55 | 45.92086 | 8.91452 | 37010 ft | 489 kts | 17° |
| 2026-05-07 11:56 | 45.98834 | 8.95066 | 36971 ft | 488 kts | 17° |
| 2026-05-07 11:56 | 46.05554 | 8.98676 | 36970 ft | 487 kts | 17° |
| 2026-05-07 11:57 | 46.12324 | 9.01739 | 36972 ft | 484 kts | 10° |
| 2026-05-07 11:57 | 46.19149 | 9.03494 | 36973 ft | 481 kts | 2° |
| 2026-05-07 11:58 | 46.25903 | 9.03970 | 36983 ft | 477 kts | 355° |
| 2026-05-07 11:58 | 46.32676 | 9.03698 | 36989 ft | 476 kts | 354° |
| 2026-05-07 11:59 | 46.39579 | 9.03365 | 36991 ft | 476 kts | 354° |
| 2026-05-07 11:59 | 46.46482 | 9.03049 | 36986 ft | 475 kts | 354° |
| 2026-05-07 12:00 | 46.53443 | 9.02742 | 36976 ft | 476 kts | 354° |
| 2026-05-07 12:00 | 46.60415 | 9.02437 | 36982 ft | 475 kts | 354° |
| 2026-05-07 12:01 | 46.67489 | 9.02126 | 37001 ft | 475 kts | 354° |
| 2026-05-07 12:01 | 46.74476 | 9.01818 | 37020 ft | 475 kts | 354° |
| 2026-05-07 12:02 | 46.81684 | 9.01501 | 37022 ft | 475 kts | 354° |
| 2026-05-07 12:02 | 46.88874 | 9.01183 | 36999 ft | 475 kts | 355° |
| 2026-05-07 12:03 | 46.96013 | 9.00867 | 36979 ft | 475 kts | 355° |
| 2026-05-07 12:03 | 47.03126 | 9.00551 | 36962 ft | 475 kts | 355° |
| 2026-05-07 12:04 | 47.10127 | 9.00240 | 36972 ft | 475 kts | 355° |
| 2026-05-07 12:04 | 47.16885 | 8.99938 | 37001 ft | 474 kts | 355° |
| 2026-05-07 12:05 | 47.23846 | 8.99626 | 37023 ft | 475 kts | 355° |
| 2026-05-07 12:05 | 47.30732 | 8.99317 | 37033 ft | 474 kts | 355° |
| 2026-05-07 12:06 | 47.37573 | 8.99010 | 37034 ft | 474 kts | 355° |
| 2026-05-07 12:06 | 47.44372 | 8.98702 | 37033 ft | 474 kts | 355° |
| 2026-05-07 12:07 | 47.51183 | 8.98394 | 37023 ft | 474 kts | 355° |
| 2026-05-07 12:07 | 47.58172 | 8.98076 | 36790 ft | 475 kts | 355° |
| 2026-05-07 12:07 | 47.61770 | 8.97912 | 36440 ft | 471 kts | 355° |
| 2026-05-07 12:08 | 47.65391 | 8.97747 | 36087 ft | 466 kts | 355° |
| 2026-05-07 12:08 | 47.69031 | 8.97581 | 35734 ft | 461 kts | 355° |
| 2026-05-07 12:08 | 47.72605 | 8.97416 | 35375 ft | 459 kts | 356° |
| 2026-05-07 12:08 | 47.76167 | 8.97251 | 35020 ft | 459 kts | 356° |
| 2026-05-07 12:09 | 47.79740 | 8.97086 | 34684 ft | 458 kts | 356° |
| 2026-05-07 12:09 | 47.83319 | 8.96920 | 34344 ft | 458 kts | 356° |
| 2026-05-07 12:09 | 47.86930 | 8.96753 | 34029 ft | 457 kts | 356° |
| 2026-05-07 12:09 | 47.90486 | 8.96588 | 33746 ft | 456 kts | 356° |
| 2026-05-07 12:10 | 47.94079 | 8.96420 | 33441 ft | 454 kts | 356° |
| 2026-05-07 12:10 | 47.97678 | 8.96252 | 33135 ft | 453 kts | 356° |
| 2026-05-07 12:10 | 48.01257 | 8.96083 | 32835 ft | 451 kts | 357° |
| 2026-05-07 12:10 | 48.04824 | 8.95913 | 32527 ft | 450 kts | 357° |
| 2026-05-07 12:11 | 48.08449 | 8.95743 | 32204 ft | 449 kts | 357° |
| 2026-05-07 12:11 | 48.11991 | 8.95578 | 31856 ft | 448 kts | 357° |
| 2026-05-07 12:11 | 48.15562 | 8.95515 | 31482 ft | 447 kts | 0° |
| 2026-05-07 12:11 | 48.19103 | 8.95764 | 31070 ft | 446 kts | 4° |
| 2026-05-07 12:12 | 48.22604 | 8.96246 | 30585 ft | 446 kts | 4° |
| 2026-05-07 12:12 | 48.26086 | 8.96777 | 30109 ft | 447 kts | 5° |
| 2026-05-07 12:12 | 48.29642 | 8.97327 | 29622 ft | 450 kts | 5° |
| 2026-05-07 12:12 | 48.33246 | 8.97879 | 29136 ft | 452 kts | 5° |
| 2026-05-07 12:13 | 48.36856 | 8.98428 | 28651 ft | 453 kts | 4° |
| 2026-05-07 12:13 | 48.40512 | 8.98981 | 28165 ft | 455 kts | 4° |
| 2026-05-07 12:13 | 48.44214 | 8.99543 | 27676 ft | 457 kts | 4° |
| 2026-05-07 12:13 | 48.47915 | 9.00109 | 27190 ft | 455 kts | 4° |
| 2026-05-07 12:14 | 48.51474 | 9.00656 | 26724 ft | 452 kts | 4° |
| 2026-05-07 12:14 | 48.55175 | 9.01220 | 26236 ft | 449 kts | 4° |
| 2026-05-07 12:14 | 48.58802 | 9.01774 | 25757 ft | 446 kts | 4° |
| 2026-05-07 12:14 | 48.62363 | 9.02339 | 25273 ft | 443 kts | 5° |
| 2026-05-07 12:15 | 48.65900 | 9.03108 | 24779 ft | 440 kts | 7° |
| 2026-05-07 12:15 | 48.69257 | 9.03909 | 24308 ft | 438 kts | 7° |
| 2026-05-07 12:15 | 48.72741 | 9.04750 | 23817 ft | 436 kts | 7° |
| 2026-05-07 12:15 | 48.76178 | 9.05575 | 23355 ft | 433 kts | 7° |
| 2026-05-07 12:16 | 48.79596 | 9.06391 | 22890 ft | 430 kts | 7° |
| 2026-05-07 12:16 | 48.83008 | 9.07205 | 22426 ft | 427 kts | 7° |
| 2026-05-07 12:16 | 48.86400 | 9.08017 | 21965 ft | 424 kts | 7° |
| 2026-05-07 12:16 | 48.89817 | 9.08697 | 21500 ft | 420 kts | 4° |
| 2026-05-07 12:17 | 48.93278 | 9.09208 | 21035 ft | 418 kts | 3° |
| 2026-05-07 12:17 | 48.96555 | 9.09660 | 20586 ft | 415 kts | 3° |
| 2026-05-07 12:17 | 48.99871 | 9.10120 | 20135 ft | 412 kts | 3° |
| 2026-05-07 12:17 | 49.03209 | 9.10593 | 19678 ft | 409 kts | 3° |
| 2026-05-07 12:18 | 49.06472 | 9.11061 | 19225 ft | 407 kts | 3° |
| 2026-05-07 12:18 | 49.09688 | 9.11520 | 18785 ft | 404 kts | 3° |
| 2026-05-07 12:18 | 49.12757 | 9.11959 | 18359 ft | 401 kts | 3° |
| 2026-05-07 12:18 | 49.15700 | 9.12378 | 17962 ft | 397 kts | 3° |
| 2026-05-07 12:19 | 49.18715 | 9.12806 | 17551 ft | 395 kts | 3° |
| 2026-05-07 12:19 | 49.21652 | 9.13224 | 17132 ft | 393 kts | 3° |
| 2026-05-07 12:19 | 49.24612 | 9.13648 | 16719 ft | 391 kts | 3° |
| 2026-05-07 12:19 | 49.27622 | 9.14160 | 16300 ft | 389 kts | 6° |
| 2026-05-07 12:20 | 49.30619 | 9.14990 | 15871 ft | 388 kts | 10° |
| 2026-05-07 12:20 | 49.33689 | 9.16049 | 15439 ft | 386 kts | 11° |
| 2026-05-07 12:20 | 49.36739 | 9.17136 | 15003 ft | 383 kts | 11° |